Meteo Giornale » Osservazioni meteo Italia » Cagliari-Elmas

ore: 15:50 - Osservazioni Meteo Cagliari-Elmas
Lat. 39° 15' N Lon. 9° 4' E Alt. 4 metri s.l.m.

poco_nuvoloso Europe/Rome

29 °C

Poco Nuvoloso

Temp. 24 Ore

25 °C

37 °C

Sud-Est

37 Km/h

Dew point 23 °C

Umidità 70 %

Visibilità  10 Km

Il sole sorge alle ore 06:09

Il sole tramonta alle ore 20:50

Data e Ora Cielo e Fenomeni T °C DP °C Um. % Pres. hPa Vis. km Vento km/h
Oggi h: 15:50 poco_nuvoloso Poco Nuvoloso 29 23 70 1010 10 SE 37
Oggi h: 15:20 nuvoloso_piovaschi Debole Rovescio di Pioggia 28 23 74 1012 10 SE 29.6
Oggi h: 14:50 poco_nuvoloso Poco Nuvoloso 32 21 52 1013 10 S/SE 16.7
Oggi h: 13:50 sereno Sereno 35 17 34 1014 10 O/SO 7.4
Oggi h: 13:20 sereno Sereno 35 16 32 1014 10 N 5.5
Oggi h: 12:50 sereno Sereno 34 18 38 1014 10 N/NE 9.3
Oggi h: 12:20 sereno Sereno 33 18 41 1014 10 N/NO 13
Oggi h: 11:50 sereno Sereno 32 20 49 1014 10 O/NO 11.1
Oggi h: 11:20 sereno Sereno 31 19 48 1014 10 N 7.4
Oggi h: 10:50 sereno Sereno 29 22 66 1014 10 NE 11.1
Oggi h: 10:20 sereno Sereno 28 22 69 1015 10 N/NE 13
Oggi h: 09:50 coperto_pioggia Pioggia Debole 27 23 78 1015 10 N/NE 13
Oggi h: 09:20 poco_nuvoloso Poco Nuvoloso 27 24 83 1016 10 SO 7.4
Oggi h: 08:50 sereno Sereno 26 24 88 1013 10 S 9.3
Oggi h: 08:20 poco_nuvoloso Poco Nuvoloso 26 25 94 1013 10 E 9.3
Oggi h: 07:50 poco_nuvoloso Poco Nuvoloso 26 24 88 1013 10 S 13
Oggi h: 07:20 poco_nuvoloso Poco Nuvoloso 26 24 88 1012 10 S 11.1
Oggi h: 06:50 poco_nuvoloso Poco Nuvoloso 26 24 88 1012 10 E 13
Oggi h: 06:20 sereno Sereno 25 23 88 1014 10 O 11.1
Oggi h: 05:50 sereno Sereno 25 24 94 1014 10 N 5.5
Oggi h: 05:20 sereno Sereno 26 24 88 1014 10 N 5.5
Oggi h: 04:50 sereno Sereno 26 24 88 1015 10 E/NE 7.4
Oggi h: 04:20 poco_nuvoloso Poco Nuvoloso 26 24 88 1015 10 E/SE 11.1
Oggi h: 03:50 poco_nuvoloso Poco Nuvoloso 26 24 88 1015 10 O/SO 11.1
Oggi h: 03:20 poco_nuvoloso Poco Nuvoloso 26 24 88 1013 10 S/SE 11.1
Oggi h: 02:50 poco_nuvoloso Poco Nuvoloso 25 23 88 1013 10 SE 11.1
Oggi h: 02:20 sereno Sereno 25 22 83 1013 10 E/NE 7.4
Oggi h: 01:50 sereno Sereno 25 23 88 1013 10 N 3.7
Oggi h: 01:20 sereno Sereno 25 23 88 1014 10 O 13
Oggi h: 00:50 sereno Sereno 25 22 83 1014 10 NO 11.1
Oggi h: 00:20 sereno Sereno 26 21 73 1014 10 NO 11.1
Ieri h: 23:50 sereno Sereno 26 21 73 1015 10 NO 11.1
Ieri h: 23:20 sereno Sereno 27 21 69 1014 10 N 14.8
Ieri h: 22:50 sereno Sereno 28 20 61 1014 10 N 13
Ieri h: 22:20 sereno Sereno 29 20 58 1014 10 N 11.1
Ieri h: 21:50 sereno Sereno 29 20 58 1014 10 N 11.1
Ieri h: 21:20 sereno Sereno 30 20 55 1014 10 NO 11.1
Ieri h: 20:20 sereno Sereno 33 17 38 1013 10 N/NO 11.1
Ieri h: 19:50 sereno Sereno 34 15 32 1013 10 N 18.5
Ieri h: 19:20 sereno Sereno 35 15 30 1013 10 N 18.5
Ieri h: 18:50 sereno Sereno 36 15 28 1013 10 N 20.3
Ieri h: 18:20 sereno Sereno 36 15 28 1013 10 N/NO 20.3
Ieri h: 17:50 sereno Sereno 36 13 25 1014 10 N 24
Ieri h: 17:20 sereno Sereno 36 17 32 1014 10 N 22.2
Ieri h: 16:50 sereno Sereno 37 17 30 1014 10 N/NO 22.2